Language: 


Des rapports , des résumés tant et plus, au choix de chacun....


Données statistiques de la station
Quotidien Rapport Janvier 3, 2017 Unités:  Métrique    Anglais   les deux
« Précédent Jour
Suivant Jour »
Quotidien Hebdomadaire Mensuel Annuel Actuel
  Haut: Bas: Moyen:
Température: 6.3 °C -2.7 °C 1.6 °C
Pt de rosée: 4.4 °C -2.9 °C 0.9 °C
Humidité: 98 % 86 % 95 %
Vitesse du vent: 17.7 km/h 0.0 km/h 8.4 km/h
Rafales: 22.4 km/h - -
Vent:- - WSW
Pression: 1028.0 hPa 1021.9 hPa -
Précipitation: 0.0 mm    
Historical Graphs
 
 
Données statistiques pour Janvier 3, 2017
Heure Température Point de rosée Pression Vent Vitesse du vent Refales Humidité Pluie (taux horaire)
00:09 0.8 °C 0.4 °C 1027.0 hPa WNW 4.0 km/h 4.0 km/h 97 % 0.0 mm
00:19 0.6 °C 0.2 °C 1027.0 hPa Calm   7.6 km/h 97 % 0.0 mm
00:29 0.6 °C 0.2 °C 1027.0 hPa West 4.7 km/h 6.1 km/h 97 % 0.0 mm
00:39 0.4 °C -0.1 °C 1027.0 hPa Calm   6.4 km/h 97 % 0.0 mm
00:49 0.3 °C -0.1 °C 1028.0 hPa Calm     97 % 0.0 mm
00:59 0.2 °C -0.2 °C 1028.0 hPa West 4.7 km/h 4.7 km/h 97 % 0.0 mm
01:09 0.1 °C -0.3 °C 1028.0 hPa West 2.6 km/h 4.7 km/h 97 % 0.0 mm
01:19 -0.2 °C -0.6 °C 1027.0 hPa Calm   2.6 km/h 97 % 0.0 mm
01:29 -0.4 °C -0.8 °C 1027.0 hPa Calm     97 % 0.0 mm
01:39 -0.3 °C -0.7 °C 1028.0 hPa Calm   5.0 km/h 97 % 0.0 mm
01:49 -0.4 °C -0.7 °C 1027.0 hPa WSW 5.8 km/h 6.1 km/h 98 % 0.0 mm
01:59 -0.3 °C -0.6 °C 1027.0 hPa West 6.4 km/h 7.2 km/h 98 % 0.0 mm
02:09 -0.1 °C -0.4 °C 1027.0 hPa West 6.4 km/h 7.9 km/h 98 % 0.0 mm
02:19 0.0 °C -0.3 °C 1027.0 hPa West 6.9 km/h 7.9 km/h 98 % 0.0 mm
02:29 0.1 °C -0.2 °C 1027.0 hPa West 6.9 km/h 8.7 km/h 98 % 0.0 mm
02:39 0.0 °C -0.3 °C 1027.0 hPa West 9.0 km/h 9.0 km/h 98 % 0.0 mm
02:49 -0.1 °C -0.4 °C 1027.0 hPa West 6.4 km/h 9.0 km/h 98 % 0.0 mm
02:59 -0.2 °C -0.5 °C 1027.0 hPa West 8.7 km/h 8.7 km/h 98 % 0.0 mm
03:09 -0.4 °C -0.7 °C 1028.0 hPa WSW 5.8 km/h 9.0 km/h 98 % 0.0 mm
03:19 -0.5 °C -0.8 °C 1027.0 hPa West 5.5 km/h 9.3 km/h 98 % 0.0 mm
03:29 -0.7 °C -0.9 °C 1027.0 hPa WSW 5.8 km/h 9.3 km/h 98 % 0.0 mm
03:39 -0.8 °C -1.1 °C 1027.0 hPa WSW 6.1 km/h 7.6 km/h 98 % 0.0 mm
03:49 -0.9 °C -1.2 °C 1027.0 hPa West 6.4 km/h 7.6 km/h 98 % 0.0 mm
03:59 -0.9 °C -1.2 °C 1027.0 hPa WSW 5.8 km/h 7.9 km/h 98 % 0.0 mm
04:09 -1.0 °C -1.3 °C 1027.0 hPa WSW 4.7 km/h 7.2 km/h 98 % 0.0 mm
04:19 -1.2 °C -1.4 °C 1027.0 hPa WSW 5.8 km/h 6.4 km/h 98 % 0.0 mm
04:29 -1.1 °C -1.3 °C 1027.0 hPa WSW 4.3 km/h 6.9 km/h 98 % 0.0 mm
04:39 -1.1 °C -1.3 °C 1027.0 hPa West 5.5 km/h 6.4 km/h 98 % 0.0 mm
04:49 -1.2 °C -1.4 °C 1027.0 hPa WSW 4.3 km/h 6.4 km/h 98 % 0.0 mm
04:59 -1.3 °C -1.6 °C 1027.0 hPa WSW 7.2 km/h 7.2 km/h 98 % 0.0 mm
05:09 -1.3 °C -1.6 °C 1027.0 hPa WSW 5.0 km/h 8.7 km/h 98 % 0.0 mm
05:19 -1.4 °C -1.7 °C 1027.0 hPa WSW 5.5 km/h 6.9 km/h 98 % 0.0 mm
05:29 -1.4 °C -1.7 °C 1027.0 hPa WSW 5.8 km/h 6.4 km/h 98 % 0.0 mm
05:49 -1.2 °C -1.4 °C 1027.0 hPa West 5.5 km/h 8.7 km/h 98 % 0.0 mm
05:59 -1.1 °C -1.3 °C 1027.0 hPa West 6.9 km/h 8.7 km/h 98 % 0.0 mm
06:09 -1.3 °C -1.6 °C 1027.0 hPa West 6.4 km/h 9.7 km/h 98 % 0.0 mm
06:19 -1.4 °C -1.7 °C 1027.0 hPa WSW 5.8 km/h 9.7 km/h 98 % 0.0 mm
06:29 -1.4 °C -1.7 °C 1027.0 hPa West 6.1 km/h 7.6 km/h 98 % 0.0 mm
06:39 -1.6 °C -1.8 °C 1027.0 hPa WSW 5.0 km/h 7.6 km/h 98 % 0.0 mm
06:49 -1.7 °C -1.9 °C 1026.0 hPa Calm   6.1 km/h 98 % 0.0 mm
06:59 -1.9 °C -2.1 °C 1026.0 hPa Calm     98 % 0.0 mm
07:09 -2.3 °C -2.5 °C 1027.0 hPa Calm     98 % 0.0 mm
07:19 -2.7 °C -2.9 °C 1027.0 hPa Calm     98 % 0.0 mm
07:29 -2.6 °C -2.8 °C 1027.0 hPa Calm   1.4 km/h 98 % 0.0 mm
07:39 -2.1 °C -2.3 °C 1027.0 hPa West 6.4 km/h 7.9 km/h 98 % 0.0 mm
07:49 -1.9 °C -2.2 °C 1027.0 hPa West 5.8 km/h 6.9 km/h 98 % 0.0 mm
07:59 -1.9 °C -2.1 °C 1027.0 hPa West 6.4 km/h 6.9 km/h 98 % 0.0 mm
08:09 -1.9 °C -2.1 °C 1028.0 hPa WSW 7.6 km/h 8.7 km/h 98 % 0.0 mm
08:19 -1.8 °C -2.1 °C 1027.0 hPa WSW 7.2 km/h 9.7 km/h 98 % 0.0 mm
08:29 -1.8 °C -2.1 °C 1027.0 hPa WSW 6.1 km/h 9.0 km/h 98 % 0.0 mm
08:39 -1.9 °C -2.2 °C 1027.0 hPa WSW 7.2 km/h 7.9 km/h 98 % 0.0 mm
08:49 -1.9 °C -2.1 °C 1026.0 hPa WSW 5.8 km/h 9.0 km/h 98 % 0.0 mm
08:59 -1.9 °C -2.1 °C 1026.0 hPa West 7.6 km/h 9.0 km/h 98 % 0.0 mm
09:09 -1.8 °C -2.1 °C 1027.0 hPa West 6.9 km/h 9.3 km/h 98 % 0.0 mm
09:19 -1.6 °C -1.8 °C 1027.0 hPa West 10.1 km/h 10.1 km/h 98 % 0.0 mm
09:29 -1.4 °C -1.7 °C 1027.0 hPa WSW 6.4 km/h 10.1 km/h 98 % 0.0 mm
09:39 -1.2 °C -1.4 °C 1027.0 hPa WSW 8.7 km/h 10.1 km/h 98 % 0.0 mm
09:49 -1.0 °C -1.3 °C 1026.0 hPa WSW 7.9 km/h 9.0 km/h 98 % 0.0 mm
09:59 -0.8 °C -1.1 °C 1026.0 hPa West 4.3 km/h 9.0 km/h 98 % 0.0 mm
10:09 -0.6 °C -0.9 °C 1026.0 hPa WSW 6.9 km/h 8.7 km/h 98 % 0.0 mm
10:19 0.1 °C -0.2 °C 1027.0 hPa WSW 5.0 km/h 9.3 km/h 98 % 0.0 mm
10:29 0.6 °C 0.3 °C 1027.0 hPa WSW 6.1 km/h 9.7 km/h 98 % 0.0 mm
10:39 0.9 °C 0.6 °C 1027.0 hPa WSW 6.4 km/h 9.0 km/h 98 % 0.0 mm
10:49 1.2 °C 0.9 °C 1027.0 hPa WSW 9.0 km/h 13.0 km/h 98 % 0.0 mm
10:59 1.4 °C 1.2 °C 1027.0 hPa WSW 8.7 km/h 12.6 km/h 98 % 0.0 mm
11:09 1.9 °C 1.6 °C 1027.0 hPa WSW 8.7 km/h 13.7 km/h 98 % 0.0 mm
11:19 1.9 °C 1.7 °C 1026.0 hPa WSW 12.2 km/h 14.0 km/h 98 % 0.0 mm
11:29 2.2 °C 1.9 °C 1026.0 hPa WSW 10.8 km/h 14.0 km/h 98 % 0.0 mm
11:39 2.6 °C 2.3 °C 1027.0 hPa West 12.6 km/h 12.6 km/h 98 % 0.0 mm
11:49 2.7 °C 2.4 °C 1026.0 hPa WSW 9.0 km/h 14.8 km/h 98 % 0.0 mm
12:09 3.1 °C 2.8 °C 1027.0 hPa WSW 9.7 km/h 12.6 km/h 98 % 0.0 mm
12:19 3.3 °C 3.1 °C 1026.0 hPa WSW 10.5 km/h 11.9 km/h 98 % 0.0 mm
12:29 3.6 °C 3.2 °C 1026.0 hPa West 7.9 km/h 11.9 km/h 98 % 0.0 mm
12:39 3.8 °C 3.4 °C 1026.0 hPa WSW 11.9 km/h 15.4 km/h 97 % 0.0 mm
12:49 4.4 °C 3.8 °C 1026.0 hPa WSW 9.0 km/h 14.0 km/h 96 % 0.0 mm
13:09 4.9 °C 4.0 °C 1026.0 hPa WSW 9.7 km/h 16.6 km/h 94 % 0.0 mm
13:19 5.1 °C 4.1 °C 1026.0 hPa WSW 15.8 km/h 15.8 km/h 93 % 0.0 mm
13:29 5.1 °C 3.4 °C 1026.0 hPa WSW 14.0 km/h 19.8 km/h 89 % 0.0 mm
13:39 5.3 °C 3.6 °C 1026.0 hPa WSW 14.0 km/h 17.7 km/h 89 % 0.0 mm
13:49 5.3 °C 3.6 °C 1024.9 hPa WSW 12.6 km/h 19.8 km/h 89 % 0.0 mm
13:59 5.7 °C 4.0 °C 1024.9 hPa WSW 14.0 km/h 17.7 km/h 89 % 0.0 mm
14:09 5.8 °C 4.1 °C 1024.9 hPa WSW 16.9 km/h 20.1 km/h 89 % 0.0 mm
14:19 6.1 °C 4.2 °C 1023.9 hPa WSW 14.0 km/h 18.0 km/h 88 % 0.0 mm
14:29 6.3 °C 4.4 °C 1023.9 hPa West 16.3 km/h 20.6 km/h 88 % 0.0 mm
14:39 5.9 °C 3.7 °C 1024.9 hPa West 16.6 km/h 22.4 km/h 86 % 0.0 mm
14:49 5.7 °C 3.7 °C 1024.9 hPa WSW 9.0 km/h 20.9 km/h 87 % 0.0 mm
14:59 5.6 °C 3.8 °C 1024.9 hPa West 17.2 km/h 17.2 km/h 88 % 0.0 mm
15:09 5.4 °C 3.6 °C 1023.9 hPa West 14.8 km/h 17.2 km/h 88 % 0.0 mm
15:19 5.1 °C 3.4 °C 1024.9 hPa WSW 15.1 km/h 17.2 km/h 89 % 0.0 mm
15:29 5.0 °C 3.3 °C 1024.9 hPa WSW 15.8 km/h 17.2 km/h 89 % 0.0 mm
15:39 4.7 °C 3.2 °C 1024.9 hPa WSW 11.1 km/h 16.6 km/h 90 % 0.0 mm
15:49 4.5 °C 3.2 °C 1024.9 hPa WSW 12.2 km/h 16.9 km/h 91 % 0.0 mm
15:59 4.3 °C 2.9 °C 1024.9 hPa West 11.9 km/h 16.3 km/h 91 % 0.0 mm
16:09 4.2 °C 2.9 °C 1024.9 hPa WSW 12.6 km/h 19.8 km/h 91 % 0.0 mm
16:19 4.2 °C 3.1 °C 1024.9 hPa West 15.8 km/h 19.8 km/h 92 % 0.0 mm
16:29 4.0 °C 2.8 °C 1024.9 hPa WSW 14.0 km/h 17.2 km/h 92 % 0.0 mm
16:39 3.9 °C 2.6 °C 1024.9 hPa WSW 16.3 km/h 21.2 km/h 91 % 0.0 mm
16:49 3.8 °C 2.7 °C 1024.9 hPa WSW 14.0 km/h 17.7 km/h 92 % 0.0 mm
16:59 3.6 °C 2.3 °C 1024.9 hPa WSW 10.5 km/h 14.0 km/h 91 % 0.0 mm
17:09 3.1 °C 1.6 °C 1023.9 hPa WSW 9.0 km/h 12.2 km/h 90 % 0.0 mm
17:19 2.8 °C 1.5 °C 1023.9 hPa WSW 8.7 km/h 10.5 km/h 91 % 0.0 mm
17:29 2.7 °C 1.7 °C 1023.9 hPa WSW 9.3 km/h 13.0 km/h 93 % 0.0 mm
17:39 2.7 °C 1.8 °C 1024.9 hPa WSW 9.7 km/h 13.0 km/h 94 % 0.0 mm
17:49 2.7 °C 1.8 °C 1023.9 hPa WSW 10.1 km/h 13.7 km/h 94 % 0.0 mm
17:59 2.8 °C 2.1 °C 1023.9 hPa West 9.7 km/h 14.0 km/h 95 % 0.0 mm
18:09 2.8 °C 2.3 °C 1023.9 hPa WSW 7.9 km/h 15.1 km/h 96 % 0.0 mm
18:19 2.6 °C 1.8 °C 1023.9 hPa WSW 2.1 km/h 8.7 km/h 95 % 0.0 mm
18:29 2.3 °C 1.6 °C 1023.9 hPa West 9.0 km/h 9.0 km/h 95 % 0.0 mm
18:39 2.3 °C 1.6 °C 1023.9 hPa WSW 9.3 km/h 9.7 km/h 95 % 0.0 mm
18:59 2.3 °C 1.7 °C 1022.9 hPa West 9.3 km/h 10.5 km/h 96 % 0.0 mm
19:09 2.3 °C 1.8 °C 1023.9 hPa West 4.7 km/h 10.5 km/h 96 % 0.0 mm
19:19 2.2 °C 1.6 °C 1023.9 hPa WSW 7.9 km/h 9.3 km/h 96 % 0.0 mm
19:29 2.3 °C 1.7 °C 1023.9 hPa WSW 9.3 km/h 10.1 km/h 96 % 0.0 mm
19:49 2.4 °C 2.0 °C 1023.9 hPa West 4.7 km/h 5.5 km/h 97 % 0.0 mm
19:59 2.4 °C 2.0 °C 1023.9 hPa West 5.8 km/h 7.6 km/h 97 % 0.0 mm
20:09 2.3 °C 1.9 °C 1022.9 hPa West 6.4 km/h 7.9 km/h 97 % 0.0 mm
20:19 2.4 °C 2.0 °C 1022.9 hPa Calm   9.0 km/h 97 % 0.0 mm
20:29 2.4 °C 2.0 °C 1022.9 hPa West 5.0 km/h 6.4 km/h 97 % 0.0 mm
20:39 2.3 °C 1.9 °C 1022.9 hPa WSW 7.6 km/h 8.7 km/h 97 % 0.0 mm
20:49 2.3 °C 1.9 °C 1022.9 hPa WSW 9.3 km/h 11.9 km/h 97 % 0.0 mm
20:59 2.6 °C 2.1 °C 1022.9 hPa WSW 9.3 km/h 9.3 km/h 97 % 0.0 mm
21:09 2.7 °C 2.2 °C 1022.9 hPa West 9.3 km/h 12.6 km/h 97 % 0.0 mm
21:29 3.1 °C 2.7 °C 1022.9 hPa West 8.7 km/h 12.2 km/h 97 % 0.0 mm
21:39 3.3 °C 2.9 °C 1022.9 hPa West 11.6 km/h 15.8 km/h 97 % 0.0 mm
21:49 3.6 °C 3.2 °C 1022.9 hPa West 10.5 km/h 17.7 km/h 97 % 0.0 mm
21:59 3.8 °C 3.2 °C 1022.9 hPa West 15.8 km/h 20.6 km/h 96 % 0.0 mm
22:09 3.9 °C 3.1 °C 1022.9 hPa WSW 15.8 km/h 18.0 km/h 94 % 0.0 mm
22:19 3.9 °C 2.7 °C 1022.9 hPa WSW 12.2 km/h 17.2 km/h 92 % 0.0 mm
22:29 4.0 °C 2.8 °C 1022.9 hPa West 17.7 km/h 21.2 km/h 92 % 0.0 mm
22:39 4.1 °C 2.6 °C 1021.9 hPa WSW 16.9 km/h 21.6 km/h 90 % 0.0 mm
22:49 4.1 °C 2.8 °C 1022.9 hPa SW 7.6 km/h 19.8 km/h 91 % 0.0 mm
22:59 4.1 °C 2.8 °C 1022.9 hPa West 10.1 km/h 16.9 km/h 91 % 0.0 mm
23:09 4.1 °C 2.8 °C 1021.9 hPa West 13.7 km/h 16.9 km/h 91 % 0.0 mm
23:19 4.2 °C 2.9 °C 1021.9 hPa West 17.2 km/h 20.6 km/h 91 % 0.0 mm
23:29 4.3 °C 2.9 °C 1021.9 hPa West 16.6 km/h 20.9 km/h 91 % 0.0 mm
23:39 4.3 °C 2.9 °C 1021.9 hPa West 13.0 km/h 20.9 km/h 91 % 0.0 mm
23:49 4.5 °C 3.2 °C 1021.9 hPa West 10.5 km/h 18.3 km/h 91 % 0.0 mm
23:59 4.5 °C 3.2 °C 1021.9 hPa West 6.9 km/h 15.4 km/h 91 % 0.0 mm
Le Gheer Warneton
Courtoisie de Weather Underground - 1.5 mb

Mise a jour : 16-12-17 15:34:12
Généré par Cumulus 1.9.4 (1099)